1880 NOT_NAMED (1880052S11089)


IBTrACS version v04r00. Visit IBTrACS website for data access.
Please direct all questions to the IBTrACS Q and A forum

Storm track - Intensity - Wind Radii - Intensity Data - Source Data - All data

Summary Information

Storm ID 1880052S11089
Start Feb 21 06Z
End Feb 28 06Z
ATCF IDs
Track status Best track data.

Storm track plot

Map of storm track

Intensity plots

No Intensity information for this storm


Radial wind information

No radial wind information for this storm


Position and Intensity Table

BASIN ISO_TIME_________ NATURE LAT LON
degrees north degrees east
SI 1880-02-21 06:00:00 NR -11.20 89.10
SI 09:00:00 NR -11.40 88.85
SI 12:00:00 NR -11.60 88.60
SI 15:00:00 NR -11.80 88.35
SI 18:00:00 NR -11.89 88.34
SI 21:00:00 NR -12.06 88.19
SI 1880-02-22 00:00:00 NR -12.27 87.97
SI 03:00:00 NR -12.48 87.75
SI 06:00:00 NR -12.65 87.55
SI 09:00:00 NR -12.76 87.42
SI 12:00:00 NR -12.84 87.35
SI 15:00:00 NR -12.88 87.32
SI 18:00:00 NR -12.92 87.30
SI 21:00:00 NR -12.97 87.27
SI 1880-02-23 00:00:00 NR -13.01 87.25
SI 03:00:00 NR -13.06 87.23
SI 06:00:00 NR -13.10 87.20
SI 09:00:00 NR -13.15 87.14
SI 12:00:00 NR -13.19 87.08
SI 15:00:00 NR -13.24 87.01
SI 18:00:00 NR -13.27 86.95
SI 21:00:00 NR -13.31 86.89
SI 1880-02-24 00:00:00 NR -13.33 86.84
SI 03:00:00 NR -13.36 86.80
SI 06:00:00 NR -13.40 86.75
SI 09:00:00 NR -13.45 86.70
SI 12:00:00 NR -13.50 86.66
SI 15:00:00 NR -13.56 86.61
SI 18:00:00 NR -13.62 86.57
SI 21:00:00 NR -13.68 86.55
SI 1880-02-25 00:00:00 NR -13.73 86.52
SI 03:00:00 NR -13.79 86.49
SI 06:00:00 NR -13.85 86.45
SI 09:00:00 NR -13.91 86.39
SI 12:00:00 NR -13.97 86.33
SI 15:00:00 NR -14.03 86.27
SI 18:00:00 NR -14.09 86.21
SI 21:00:00 NR -14.14 86.16
SI 1880-02-26 00:00:00 NR -14.18 86.13
SI 03:00:00 NR -14.24 86.09
SI 06:00:00 NR -14.30 86.05
SI 09:00:00 NR -14.38 86.00
SI 12:00:00 NR -14.47 85.95
SI 15:00:00 NR -14.57 85.90
SI 18:00:00 NR -14.67 85.84
SI 21:00:00 NR -14.77 85.77
SI 1880-02-27 00:00:00 NR -14.86 85.68
SI 03:00:00 NR -14.96 85.58
SI 06:00:00 NR -15.08 85.46
SI 09:00:00 NR -15.23 85.32
SI 12:00:00 NR -15.37 85.22
SI 15:00:00 NR -15.52 85.13
SI 18:00:00 NR -15.67 85.03
SI 21:00:00 NR -15.82 84.92
SI 1880-02-28 00:00:00 NR -15.98 84.82
SI 03:00:00 NR -16.14 84.71
SI 06:00:00 NR -16.30 84.60

Source Information

Agency Information
USA
TOKYO
CMA
HKO
NEWDELHI
REUNION WMO-Best-Tracks.txt:Line=1210:xxxx880178
BOM
NADI
WELLINGTON
DS824
TD9636 cons_worldwide_trop_cyclone_18710101-19891231-005:Line=1625
TD9635
NEUMANN
MLC

All available IBTrACS Data

SEASON BASIN SUBBASIN ISO_TIME_________ NATURE LAT LON DIST2LAND LANDFALL IFLAG USA SSHS REUNION LAT REUNION LON REUNION TYPE REUNION TNUM TD9636 LAT TD9636 LON TD9636 STAGE STORM SPEED STORM DIR
Year degrees north degrees east km km 1 degrees north degrees east 1 degrees north degrees east kts degrees
1880 SI MM 1880-02-21 06:00:00 NR -11.20 89.10 1518 1518 _____O________ -1 -11.20 89.10 99 9.90 6 231
1880 SI MM 09:00:00 NR -11.40 88.85 1557 1557 _____P________ -1 -11.40 88.85 99 6 231
1880 SI MM 12:00:00 NR -11.60 88.60 1588 1588 _____P________ -1 -11.60 88.60 99 6 231
1880 SI MM 15:00:00 NR -11.80 88.35 1619 1619 _____P________ -1 -11.80 88.35 99 4 222
1880 SI MM 18:00:00 NR -11.89 88.34 1635 1635 _____P____O___ -1 -11.99 88.12 99 -11.50 89.20 7 3 212
1880 SI MM 21:00:00 NR -12.06 88.19 1658 1658 _____P____P___ -1 -12.16 87.91 99 -11.86 88.75 7 5 223
1880 SI MM 1880-02-22 00:00:00 NR -12.27 87.97 1689 1689 _____P____P___ -1 -12.33 87.71 99 -12.20 88.32 7 6 225
1880 SI MM 03:00:00 NR -12.48 87.75 1721 1721 _____P____P___ -1 -12.47 87.54 99 -12.49 87.96 7 6 228
1880 SI MM 06:00:00 NR -12.65 87.55 1744 1744 _____O____O___ -1 -12.60 87.40 99 9.90 -12.70 87.70 7 4 229
1880 SI MM 09:00:00 NR -12.76 87.42 1775 1775 _____P____P___ -1 -12.71 87.29 99 -12.82 87.55 7 3 226
1880 SI MM 12:00:00 NR -12.84 87.35 1775 1775 _____P____P___ -1 -12.80 87.21 99 -12.87 87.49 7 2 221
1880 SI MM 15:00:00 NR -12.88 87.32 1791 1791 _____P____P___ -1 -12.87 87.15 99 -12.89 87.49 7 1 205
1880 SI MM 18:00:00 NR -12.92 87.30 1791 1791 _____P____O___ -1 -12.93 87.10 99 -12.90 87.50 7 1 208
1880 SI MM 21:00:00 NR -12.97 87.27 1799 1799 _____P____P___ -1 -12.98 87.07 99 -12.95 87.48 7 1 202
1880 SI MM 1880-02-23 00:00:00 NR -13.01 87.25 1799 1799 _____P____P___ -1 -13.03 87.05 99 -13.00 87.46 7 1 201
1880 SI MM 03:00:00 NR -13.06 87.23 1814 1814 _____P____P___ -1 -13.06 87.02 99 -13.05 87.44 7 1 214
1880 SI MM 06:00:00 NR -13.10 87.20 1814 1814 _____O____O___ -1 -13.10 87.00 99 9.90 -13.10 87.40 7 1 223
1880 SI MM 09:00:00 NR -13.15 87.14 1822 1822 _____P____P___ -1 -13.14 86.95 99 -13.15 87.34 7 2 232
1880 SI MM 12:00:00 NR -13.19 87.08 1830 1830 _____P____P___ -1 -13.18 86.90 99 -13.21 87.26 7 2 236
1880 SI MM 15:00:00 NR -13.24 87.01 1837 1837 _____P____P___ -1 -13.22 86.84 99 -13.26 87.18 7 2 237
1880 SI MM 18:00:00 NR -13.27 86.95 1853 1853 _____P____O___ -1 -13.25 86.79 99 -13.30 87.10 7 1 238
1880 SI MM 21:00:00 NR -13.31 86.89 1853 1853 _____P____P___ -1 -13.28 86.74 99 -13.33 87.04 7 1 238
1880 SI MM 1880-02-24 00:00:00 NR -13.33 86.84 1861 1861 _____P____P___ -1 -13.32 86.69 99 -13.35 86.99 7 1 238
1880 SI MM 03:00:00 NR -13.36 86.80 1869 1869 _____P____P___ -1 -13.36 86.65 99 -13.37 86.95 7 1 234
1880 SI MM 06:00:00 NR -13.40 86.75 1869 1869 _____O____O___ -1 -13.40 86.60 99 9.90 -13.40 86.90 7 1 228
1880 SI MM 09:00:00 NR -13.45 86.70 1876 1876 _____P____P___ -1 -13.46 86.56 99 -13.44 86.85 7 1 221
1880 SI MM 12:00:00 NR -13.50 86.66 1884 1884 _____P____P___ -1 -13.51 86.52 99 -13.49 86.79 7 1 218
1880 SI MM 15:00:00 NR -13.56 86.61 1900 1900 _____P____P___ -1 -13.58 86.49 99 -13.55 86.74 7 1 214
1880 SI MM 18:00:00 NR -13.62 86.57 1900 1900 _____P____O___ -1 -13.64 86.45 99 -13.60 86.70 7 1 213
1880 SI MM 21:00:00 NR -13.68 86.55 1915 1915 _____P____P___ -1 -13.71 86.41 99 -13.65 86.68 7 1 206
1880 SI MM 1880-02-25 00:00:00 NR -13.73 86.52 1915 1915 _____P____P___ -1 -13.77 86.38 99 -13.69 86.66 7 1 205
1880 SI MM 03:00:00 NR -13.79 86.49 1923 1923 _____P____P___ -1 -13.84 86.34 99 -13.74 86.64 7 1 212
1880 SI MM 06:00:00 NR -13.85 86.45 1923 1939 _____O____O___ -1 -13.90 86.30 99 9.90 -13.80 86.60 7 2 217
1880 SI MM 09:00:00 NR -13.91 86.39 1939 1939 _____P____P___ -1 -13.95 86.26 99 -13.87 86.53 7 2 224
1880 SI MM 12:00:00 NR -13.97 86.33 1954 1954 _____P____P___ -1 -13.99 86.21 99 -13.95 86.45 7 2 225
1880 SI MM 15:00:00 NR -14.03 86.27 1954 1954 _____P____P___ -1 -14.03 86.16 99 -14.03 86.37 7 2 225
1880 SI MM 18:00:00 NR -14.09 86.21 1970 1970 _____P____O___ -1 -14.08 86.11 99 -14.10 86.30 7 1 222
1880 SI MM 21:00:00 NR -14.14 86.16 1970 1970 _____P____P___ -1 -14.12 86.06 99 -14.15 86.26 7 1 220
1880 SI MM 1880-02-26 00:00:00 NR -14.18 86.13 1985 1985 _____P____P___ -1 -14.18 86.01 99 -14.19 86.24 7 1 213
1880 SI MM 03:00:00 NR -14.24 86.09 1985 1985 _____P____P___ -1 -14.23 85.96 99 -14.24 86.22 7 1 216
1880 SI MM 06:00:00 NR -14.30 86.05 1993 1993 _____O____O___ -1 -14.30 85.90 99 9.90 -14.30 86.20 7 2 207
1880 SI MM 09:00:00 NR -14.38 86.00 2008 2008 _____P____P___ -1 -14.37 85.85 99 -14.39 86.16 7 2 206
1880 SI MM 12:00:00 NR -14.47 85.95 2016 2016 _____P____P___ -1 -14.45 85.79 99 -14.49 86.12 7 2 209
1880 SI MM 15:00:00 NR -14.57 85.90 2032 2032 _____P____P___ -1 -14.54 85.74 99 -14.60 86.06 7 2 210
1880 SI MM 18:00:00 NR -14.67 85.84 2047 2047 _____P____O___ -1 -14.64 85.68 99 -14.70 86.00 7 2 211
1880 SI MM 21:00:00 NR -14.77 85.77 2055 2055 _____P____P___ -1 -14.74 85.62 99 -14.79 85.93 7 2 219
1880 SI MM 1880-02-27 00:00:00 NR -14.86 85.68 2071 2071 _____P____P___ -1 -14.85 85.55 99 -14.87 85.86 7 3 224
1880 SI MM 03:00:00 NR -14.96 85.58 2086 2086 _____P____P___ -1 -14.97 85.48 99 -14.93 85.78 7 3 224
1880 SI MM 06:00:00 NR -15.08 85.46 2102 2102 _____O____O___ -1 -15.10 85.40 99 9.90 -15.00 85.70 7 4 223
1880 SI MM 09:00:00 NR -15.23 85.32 2125 2125 _____P________ -1 -15.23 85.32 99 7 4 218
1880 SI MM 12:00:00 NR -15.37 85.22 2148 2148 _____P________ -1 -15.37 85.22 99 7 3 212
1880 SI MM 15:00:00 NR -15.52 85.13 2164 2164 _____P________ -1 -15.52 85.13 99 7 4 213
1880 SI MM 18:00:00 NR -15.67 85.03 2187 2187 _____P________ -1 -15.67 85.03 99 4 213
1880 SI MM 21:00:00 NR -15.82 84.92 2202 2202 _____P________ -1 -15.82 84.92 99 4 213
1880 SI MM 1880-02-28 00:00:00 NR -15.98 84.82 2226 2226 _____P________ -1 -15.98 84.82 99 4 213
1880 SI MM 03:00:00 NR -16.14 84.71 2241 2241 _____P________ -1 -16.14 84.71 99 4 213
1880 SI MM 06:00:00 NR -16.30 84.60 2264 _____O________ -1 -16.30 84.60 99 9.90 4 213